sensor_id;sensor_type;location;lat;lon;timestamp;P1;P2;P0
77411;PMS7003;66484;49.968;19.140;2023-04-03T00:01:06;16.25;16.25;10.50
77411;PMS7003;66484;49.968;19.140;2023-04-03T00:03:33;17.75;14.50;10.00
77411;PMS7003;66484;49.968;19.140;2023-04-03T00:06:02;7.00;5.25;3.75
77411;PMS7003;66484;49.968;19.140;2023-04-03T00:08:29;15.00;12.75;9.00
77411;PMS7003;66484;49.968;19.140;2023-04-03T00:11:00;14.00;12.25;9.50
77411;PMS7003;66484;49.968;19.140;2023-04-03T00:13:27;8.50;6.00;6.00
77411;PMS7003;66484;49.968;19.140;2023-04-03T00:15:54;17.75;14.75;10.50
77411;PMS7003;66484;49.968;19.140;2023-04-03T00:18:22;10.50;9.25;5.00
77411;PMS7003;66484;49.968;19.140;2023-04-03T00:20:49;16.75;14.75;9.25
77411;PMS7003;66484;49.968;19.140;2023-04-03T00:23:17;13.75;7.75;3.00
77411;PMS7003;66484;49.968;19.140;2023-04-03T00:25:44;15.00;13.50;8.75
77411;PMS7003;66484;49.968;19.140;2023-04-03T00:28:12;18.00;14.00;11.50
77411;PMS7003;66484;49.968;19.140;2023-04-03T00:30:39;23.00;21.50;13.25
77411;PMS7003;66484;49.968;19.140;2023-04-03T00:33:07;17.50;15.75;12.75
77411;PMS7003;66484;49.968;19.140;2023-04-03T00:35:36;21.00;16.25;12.50
77411;PMS7003;66484;49.968;19.140;2023-04-03T00:38:03;16.75;16.00;13.75
77411;PMS7003;66484;49.968;19.140;2023-04-03T00:40:35;22.75;17.75;13.00
77411;PMS7003;66484;49.968;19.140;2023-04-03T00:43:25;16.00;13.00;10.50
77411;PMS7003;66484;49.968;19.140;2023-04-03T00:45:55;20.25;17.00;12.00
77411;PMS7003;66484;49.968;19.140;2023-04-03T00:48:37;21.00;17.75;14.00
77411;PMS7003;66484;49.968;19.140;2023-04-03T00:51:09;16.25;15.50;11.75
77411;PMS7003;66484;49.968;19.140;2023-04-03T00:53:41;18.25;16.75;13.00
77411;PMS7003;66484;49.968;19.140;2023-04-03T00:56:13;16.00;15.00;12.25
77411;PMS7003;66484;49.968;19.140;2023-04-03T00:58:54;15.75;13.50;9.50
77411;PMS7003;66484;49.968;19.140;2023-04-03T01:01:35;18.75;18.50;12.75
77411;PMS7003;66484;49.968;19.140;2023-04-03T01:04:04;19.00;17.25;13.00
77411;PMS7003;66484;49.968;19.140;2023-04-03T01:06:34;22.00;19.25;13.00
77411;PMS7003;66484;49.968;19.140;2023-04-03T01:09:03;21.50;18.25;13.50
77411;PMS7003;66484;49.968;19.140;2023-04-03T01:11:31;20.75;16.75;12.00
77411;PMS7003;66484;49.968;19.140;2023-04-03T01:13:58;12.75;12.00;9.50
77411;PMS7003;66484;49.968;19.140;2023-04-03T01:16:27;10.25;9.00;7.00
77411;PMS7003;66484;49.968;19.140;2023-04-03T01:18:56;12.00;10.50;9.00
77411;PMS7003;66484;49.968;19.140;2023-04-03T01:26:53;8.75;7.75;6.00
77411;PMS7003;66484;49.968;19.140;2023-04-03T01:29:21;10.25;8.50;5.00
77411;PMS7003;66484;49.968;19.140;2023-04-03T01:31:52;6.00;4.25;4.00
77411;PMS7003;66484;49.968;19.140;2023-04-03T01:34:21;12.50;10.00;8.50
77411;PMS7003;66484;49.968;19.140;2023-04-03T01:36:49;14.50;12.75;9.75
77411;PMS7003;66484;49.968;19.140;2023-04-03T01:39:17;12.50;8.75;6.00
77411;PMS7003;66484;49.968;19.140;2023-04-03T01:41:44;11.50;11.50;9.25
77411;PMS7003;66484;49.968;19.140;2023-04-03T01:44:12;9.75;8.25;6.75
77411;PMS7003;66484;49.968;19.140;2023-04-03T01:46:40;9.25;9.25;6.50
77411;PMS7003;66484;49.968;19.140;2023-04-03T01:49:09;14.25;11.75;8.00
77411;PMS7003;66484;49.968;19.140;2023-04-03T01:51:36;8.00;8.00;5.25
77411;PMS7003;66484;49.968;19.140;2023-04-03T01:54:03;7.00;7.00;5.75
77411;PMS7003;66484;49.968;19.140;2023-04-03T01:56:31;15.75;13.50;10.25
77411;PMS7003;66484;49.968;19.140;2023-04-03T01:58:58;20.75;15.75;9.75
77411;PMS7003;66484;49.968;19.140;2023-04-03T02:01:25;12.00;9.75;7.50
77411;PMS7003;66484;49.968;19.140;2023-04-03T02:03:53;12.75;10.50;8.00
77411;PMS7003;66484;49.968;19.140;2023-04-03T02:06:20;11.00;8.75;6.00
77411;PMS7003;66484;49.968;19.140;2023-04-03T02:08:47;7.50;7.50;5.25
77411;PMS7003;66484;49.968;19.140;2023-04-03T02:11:15;13.00;12.00;8.75
77411;PMS7003;66484;49.968;19.140;2023-04-03T02:13:42;10.00;9.00;5.25
77411;PMS7003;66484;49.968;19.140;2023-04-03T02:16:10;8.00;6.00;5.25
77411;PMS7003;66484;49.968;19.140;2023-04-03T02:18:38;13.00;12.25;9.00
77411;PMS7003;66484;49.968;19.140;2023-04-03T02:21:05;15.25;13.50;8.50
77411;PMS7003;66484;49.968;19.140;2023-04-03T02:23:32;15.25;12.00;8.25
77411;PMS7003;66484;49.968;19.140;2023-04-03T02:26:03;16.50;13.50;8.50
77411;PMS7003;66484;49.968;19.140;2023-04-03T02:28:32;13.75;13.25;10.50
77411;PMS7003;66484;49.968;19.140;2023-04-03T02:31:00;13.50;12.75;10.50
77411;PMS7003;66484;49.968;19.140;2023-04-03T02:33:27;15.00;12.75;9.75
77411;PMS7003;66484;49.968;19.140;2023-04-03T02:35:55;19.50;17.25;13.00
77411;PMS7003;66484;49.968;19.140;2023-04-03T02:38:23;13.50;13.50;10.00
77411;PMS7003;66484;49.968;19.140;2023-04-03T02:40:50;15.00;13.00;9.50
77411;PMS7003;66484;49.968;19.140;2023-04-03T02:43:19;17.50;14.50;10.25
77411;PMS7003;66484;49.968;19.140;2023-04-03T02:45:46;12.25;9.75;8.00
77411;PMS7003;66484;49.968;19.140;2023-04-03T02:48:13;11.25;11.25;8.25
77411;PMS7003;66484;49.968;19.140;2023-04-03T02:50:41;16.00;16.00;10.25
77411;PMS7003;66484;49.968;19.140;2023-04-03T02:53:08;18.25;16.50;10.25
77411;PMS7003;66484;49.968;19.140;2023-04-03T02:55:36;10.75;10.75;9.25
77411;PMS7003;66484;49.968;19.140;2023-04-03T02:58:03;17.00;14.00;10.00
77411;PMS7003;66484;49.968;19.140;2023-04-03T03:00:30;10.75;9.25;8.25
77411;PMS7003;66484;49.968;19.140;2023-04-03T03:02:57;10.25;10.25;6.00
77411;PMS7003;66484;49.968;19.140;2023-04-03T03:05:26;17.75;15.75;9.50
77411;PMS7003;66484;49.968;19.140;2023-04-03T03:07:54;15.00;15.00;11.00
77411;PMS7003;66484;49.968;19.140;2023-04-03T03:10:21;14.50;14.00;8.00
77411;PMS7003;66484;49.968;19.140;2023-04-03T03:12:49;19.25;17.75;13.00
77411;PMS7003;66484;49.968;19.140;2023-04-03T03:15:16;19.25;16.25;11.75
77411;PMS7003;66484;49.968;19.140;2023-04-03T03:17:45;20.25;16.50;13.25
77411;PMS7003;66484;49.968;19.140;2023-04-03T03:20:13;19.50;16.75;10.00
77411;PMS7003;66484;49.968;19.140;2023-04-03T03:22:42;19.75;18.00;13.00
77411;PMS7003;66484;49.968;19.140;2023-04-03T03:25:10;19.25;16.25;13.50
77411;PMS7003;66484;49.968;19.140;2023-04-03T03:27:37;17.25;12.25;8.75
77411;PMS7003;66484;49.968;19.140;2023-04-03T03:30:05;24.75;21.50;14.00
77411;PMS7003;66484;49.968;19.140;2023-04-03T03:32:33;13.00;13.00;8.75
77411;PMS7003;66484;49.968;19.140;2023-04-03T03:35:00;24.25;23.25;14.50
77411;PMS7003;66484;49.968;19.140;2023-04-03T03:37:27;31.50;23.00;15.00
77411;PMS7003;66484;49.968;19.140;2023-04-03T03:39:55;18.50;16.50;11.00
77411;PMS7003;66484;49.968;19.140;2023-04-03T03:42:22;14.00;12.50;9.75
77411;PMS7003;66484;49.968;19.140;2023-04-03T03:44:49;16.75;16.75;12.25
77411;PMS7003;66484;49.968;19.140;2023-04-03T03:47:16;17.00;16.00;12.50
77411;PMS7003;66484;49.968;19.140;2023-04-03T03:49:44;18.50;16.50;11.75
77411;PMS7003;66484;49.968;19.140;2023-04-03T03:52:11;28.25;19.50;14.50
77411;PMS7003;66484;49.968;19.140;2023-04-03T03:54:38;19.50;18.25;11.25
77411;PMS7003;66484;49.968;19.140;2023-04-03T03:57:05;12.25;11.00;8.25
77411;PMS7003;66484;49.968;19.140;2023-04-03T03:59:33;16.50;16.50;11.25
77411;PMS7003;66484;49.968;19.140;2023-04-03T04:01:59;12.75;10.50;6.50
77411;PMS7003;66484;49.968;19.140;2023-04-03T04:04:27;11.75;9.00;8.25
77411;PMS7003;66484;49.968;19.140;2023-04-03T04:06:54;19.50;15.25;11.50
77411;PMS7003;66484;49.968;19.140;2023-04-03T04:09:22;15.75;10.00;8.50
77411;PMS7003;66484;49.968;19.140;2023-04-03T04:11:49;13.25;11.00;8.25
77411;PMS7003;66484;49.968;19.140;2023-04-03T04:14:16;12.50;9.00;7.25
77411;PMS7003;66484;49.968;19.140;2023-04-03T04:16:43;25.50;17.75;12.75
77411;PMS7003;66484;49.968;19.140;2023-04-03T04:19:10;17.25;16.00;10.50
77411;PMS7003;66484;49.968;19.140;2023-04-03T04:21:37;16.25;15.50;12.25
77411;PMS7003;66484;49.968;19.140;2023-04-03T04:24:05;19.25;17.75;13.00
77411;PMS7003;66484;49.968;19.140;2023-04-03T04:26:32;16.00;14.00;12.00
77411;PMS7003;66484;49.968;19.140;2023-04-03T04:29:00;21.25;18.75;14.25
77411;PMS7003;66484;49.968;19.140;2023-04-03T04:31:27;18.00;18.00;12.75
77411;PMS7003;66484;49.968;19.140;2023-04-03T04:33:55;26.00;23.75;15.00
77411;PMS7003;66484;49.968;19.140;2023-04-03T04:36:22;19.25;17.25;12.00
77411;PMS7003;66484;49.968;19.140;2023-04-03T04:38:49;14.75;14.75;11.25
77411;PMS7003;66484;49.968;19.140;2023-04-03T04:41:20;18.75;17.75;13.00
77411;PMS7003;66484;49.968;19.140;2023-04-03T04:43:49;19.25;17.50;12.25
77411;PMS7003;66484;49.968;19.140;2023-04-03T04:46:16;18.75;13.00;8.75
77411;PMS7003;66484;49.968;19.140;2023-04-03T04:48:44;24.50;20.25;12.00
77411;PMS7003;66484;49.968;19.140;2023-04-03T04:51:11;19.00;17.00;11.50
77411;PMS7003;66484;49.968;19.140;2023-04-03T04:53:38;20.00;19.00;13.50
77411;PMS7003;66484;49.968;19.140;2023-04-03T04:56:06;21.25;16.50;14.50
77411;PMS7003;66484;49.968;19.140;2023-04-03T04:58:33;14.50;10.25;4.00
77411;PMS7003;66484;49.968;19.140;2023-04-03T05:01:04;31.00;29.75;21.25
77411;PMS7003;66484;49.968;19.140;2023-04-03T05:03:33;29.00;26.75;19.50
77411;PMS7003;66484;49.968;19.140;2023-04-03T05:06:00;36.25;30.25;18.00
77411;PMS7003;66484;49.968;19.140;2023-04-03T05:08:27;25.00;22.25;16.25
77411;PMS7003;66484;49.968;19.140;2023-04-03T05:10:54;26.25;22.25;17.75
77411;PMS7003;66484;49.968;19.140;2023-04-03T05:13:22;24.75;18.50;13.75
77411;PMS7003;66484;49.968;19.140;2023-04-03T05:15:49;21.75;20.75;11.75
77411;PMS7003;66484;49.968;19.140;2023-04-03T05:18:16;21.00;16.50;8.75
77411;PMS7003;66484;49.968;19.140;2023-04-03T05:20:43;28.25;25.00;16.75
77411;PMS7003;66484;49.968;19.140;2023-04-03T05:23:11;33.00;33.00;20.50
77411;PMS7003;66484;49.968;19.140;2023-04-03T05:25:38;33.25;25.75;15.25
77411;PMS7003;66484;49.968;19.140;2023-04-03T05:28:06;28.25;25.50;15.75
77411;PMS7003;66484;49.968;19.140;2023-04-03T05:30:33;28.00;24.50;16.25
77411;PMS7003;66484;49.968;19.140;2023-04-03T05:33:00;32.25;29.75;18.25
77411;PMS7003;66484;49.968;19.140;2023-04-03T05:35:28;27.75;25.50;18.00
77411;PMS7003;66484;49.968;19.140;2023-04-03T05:37:55;28.75;26.75;19.50
77411;PMS7003;66484;49.968;19.140;2023-04-03T05:40:22;23.00;20.50;15.75
77411;PMS7003;66484;49.968;19.140;2023-04-03T05:42:49;20.00;16.75;11.75
77411;PMS7003;66484;49.968;19.140;2023-04-03T05:45:16;23.25;21.75;15.75
77411;PMS7003;66484;49.968;19.140;2023-04-03T05:47:44;25.25;24.50;17.00
77411;PMS7003;66484;49.968;19.140;2023-04-03T05:50:11;39.25;33.00;18.50
77411;PMS7003;66484;49.968;19.140;2023-04-03T05:52:40;28.25;27.50;19.00
77411;PMS7003;66484;49.968;19.140;2023-04-03T05:55:10;25.00;20.25;15.50
77411;PMS7003;66484;49.968;19.140;2023-04-03T05:57:37;30.00;30.00;19.50
77411;PMS7003;66484;49.968;19.140;2023-04-03T06:00:06;29.75;27.25;19.50
77411;PMS7003;66484;49.968;19.140;2023-04-03T06:02:36;35.00;28.50;21.00
77411;PMS7003;66484;49.968;19.140;2023-04-03T06:05:04;20.50;18.50;10.50
77411;PMS7003;66484;49.968;19.140;2023-04-03T06:07:32;30.25;26.50;17.50
77411;PMS7003;66484;49.968;19.140;2023-04-03T06:09:59;4.75;4.75;3.00
77411;PMS7003;66484;49.968;19.140;2023-04-03T06:12:28;7.75;7.75;6.50
77411;PMS7003;66484;49.968;19.140;2023-04-03T06:14:58;8.00;8.00;6.00
77411;PMS7003;66484;49.968;19.140;2023-04-03T06:17:26;8.50;8.00;5.50
77411;PMS7003;66484;49.968;19.140;2023-04-03T06:19:53;8.50;7.00;4.75
77411;PMS7003;66484;49.968;19.140;2023-04-03T06:22:20;9.00;5.75;2.00
77411;PMS7003;66484;49.968;19.140;2023-04-03T06:24:48;16.00;11.50;8.00
77411;PMS7003;66484;49.968;19.140;2023-04-03T06:27:15;6.50;5.00;3.50
77411;PMS7003;66484;49.968;19.140;2023-04-03T06:29:43;19.25;18.25;12.00
77411;PMS7003;66484;49.968;19.140;2023-04-03T06:32:12;11.50;11.25;8.50
77411;PMS7003;66484;49.968;19.140;2023-04-03T06:34:40;15.25;12.25;8.00
77411;PMS7003;66484;49.968;19.140;2023-04-03T06:37:18;13.25;10.25;7.75
77411;PMS7003;66484;49.968;19.140;2023-04-03T06:39:47;20.75;15.75;11.00
77411;PMS7003;66484;49.968;19.140;2023-04-03T06:42:14;26.50;23.75;14.75
77411;PMS7003;66484;49.968;19.140;2023-04-03T06:44:42;19.75;15.50;12.00
77411;PMS7003;66484;49.968;19.140;2023-04-03T06:47:14;16.75;12.00;8.75
77411;PMS7003;66484;49.968;19.140;2023-04-03T06:49:42;13.25;12.00;8.25
77411;PMS7003;66484;49.968;19.140;2023-04-03T06:52:10;14.50;12.50;9.00
77411;PMS7003;66484;49.968;19.140;2023-04-03T06:54:39;15.00;11.50;7.00
77411;PMS7003;66484;49.968;19.140;2023-04-03T06:57:07;16.75;12.00;8.50
77411;PMS7003;66484;49.968;19.140;2023-04-03T06:59:35;13.50;13.50;9.25
77411;PMS7003;66484;49.968;19.140;2023-04-03T07:02:03;8.50;7.00;5.50
77411;PMS7003;66484;49.968;19.140;2023-04-03T07:04:31;8.75;5.00;4.25
77411;PMS7003;66484;49.968;19.140;2023-04-03T07:06:58;12.25;12.00;8.00
77411;PMS7003;66484;49.968;19.140;2023-04-03T07:09:25;9.50;9.25;6.00
77411;PMS7003;66484;49.968;19.140;2023-04-03T07:11:52;1.00;1.00;0.00
77411;PMS7003;66484;49.968;19.140;2023-04-03T07:14:19;12.50;11.00;7.00
77411;PMS7003;66484;49.968;19.140;2023-04-03T07:16:48;12.50;12.25;7.50
77411;PMS7003;66484;49.968;19.140;2023-04-03T07:19:15;12.25;8.75;7.00
77411;PMS7003;66484;49.968;19.140;2023-04-03T07:21:42;11.00;9.25;5.75
77411;PMS7003;66484;49.968;19.140;2023-04-03T07:24:10;11.00;9.00;6.50
77411;PMS7003;66484;49.968;19.140;2023-04-03T07:26:42;10.00;8.25;6.50
77411;PMS7003;66484;49.968;19.140;2023-04-03T07:29:09;4.50;4.50;2.00
77411;PMS7003;66484;49.968;19.140;2023-04-03T07:31:38;7.75;6.25;5.25
77411;PMS7003;66484;49.968;19.140;2023-04-03T07:34:06;7.50;7.50;4.50
77411;PMS7003;66484;49.968;19.140;2023-04-03T07:36:33;14.00;14.00;8.00
77411;PMS7003;66484;49.968;19.140;2023-04-03T07:39:01;9.00;7.00;2.00
77411;PMS7003;66484;49.968;19.140;2023-04-03T07:41:28;14.25;10.75;7.50
77411;PMS7003;66484;49.968;19.140;2023-04-03T07:43:56;11.00;8.75;5.50
77411;PMS7003;66484;49.968;19.140;2023-04-03T07:46:25;9.75;8.00;6.50
77411;PMS7003;66484;49.968;19.140;2023-04-03T07:48:52;4.00;4.00;2.00
77411;PMS7003;66484;49.968;19.140;2023-04-03T07:51:21;7.00;5.50;3.50
77411;PMS7003;66484;49.968;19.140;2023-04-03T07:53:49;5.25;5.25;5.00
77411;PMS7003;66484;49.968;19.140;2023-04-03T07:56:16;5.50;5.50;3.75
77411;PMS7003;66484;49.968;19.140;2023-04-03T07:58:43;5.50;3.50;1.75
77411;PMS7003;66484;49.968;19.140;2023-04-03T08:01:12;9.75;6.25;5.00
77411;PMS7003;66484;49.968;19.140;2023-04-03T08:03:39;5.00;4.50;2.50
77411;PMS7003;66484;49.968;19.140;2023-04-03T08:06:07;6.75;5.25;4.50
77411;PMS7003;66484;49.968;19.140;2023-04-03T08:08:41;5.75;4.00;3.00
77411;PMS7003;66484;49.968;19.140;2023-04-03T08:11:09;7.25;5.50;2.00
77411;PMS7003;66484;49.968;19.140;2023-04-03T08:13:37;2.00;2.00;1.25
77411;PMS7003;66484;49.968;19.140;2023-04-03T08:16:09;6.00;4.00;4.00
77411;PMS7003;66484;49.968;19.140;2023-04-03T08:18:38;9.25;7.00;5.00
77411;PMS7003;66484;49.968;19.140;2023-04-03T08:21:07;2.00;2.00;2.00
77411;PMS7003;66484;49.968;19.140;2023-04-03T08:23:36;8.75;4.25;2.50
77411;PMS7003;66484;49.968;19.140;2023-04-03T08:26:10;8.50;6.00;3.50
77411;PMS7003;66484;49.968;19.140;2023-04-03T08:28:40;6.50;6.50;3.75
77411;PMS7003;66484;49.968;19.140;2023-04-03T08:31:09;5.00;4.00;2.00
77411;PMS7003;66484;49.968;19.140;2023-04-03T08:33:39;5.75;3.50;2.00
77411;PMS7003;66484;49.968;19.140;2023-04-03T08:36:07;5.00;3.25;1.50
77411;PMS7003;66484;49.968;19.140;2023-04-03T08:38:42;7.75;3.75;3.00
77411;PMS7003;66484;49.968;19.140;2023-04-03T08:44:02;8.50;8.50;6.00
77411;PMS7003;66484;49.968;19.140;2023-04-03T08:49:47;2.00;2.00;1.00
77411;PMS7003;66484;49.968;19.140;2023-04-03T08:52:15;3.50;3.00;1.00
77411;PMS7003;66484;49.968;19.140;2023-04-03T08:54:58;2.75;1.00;0.25
77411;PMS7003;66484;49.968;19.140;2023-04-03T08:57:41;2.75;2.00;1.00
77411;PMS7003;66484;49.968;19.140;2023-04-03T09:02:47;9.00;5.00;2.75
77411;PMS7003;66484;49.968;19.140;2023-04-03T09:10:58;2.75;2.75;2.00
77411;PMS7003;66484;49.968;19.140;2023-04-03T09:13:30;2.00;2.00;2.00
77411;PMS7003;66484;49.968;19.140;2023-04-03T09:16:10;5.25;3.00;1.75
77411;PMS7003;66484;49.968;19.140;2023-04-03T09:19:21;5.75;5.75;3.50
77411;PMS7003;66484;49.968;19.140;2023-04-03T09:21:52;1.25;1.25;1.00
77411;PMS7003;66484;49.968;19.140;2023-04-03T09:24:20;5.00;5.00;2.00
77411;PMS7003;66484;49.968;19.140;2023-04-03T09:26:51;4.75;2.25;1.50
77411;PMS7003;66484;49.968;19.140;2023-04-03T09:29:22;5.00;2.00;1.50
77411;PMS7003;66484;49.968;19.140;2023-04-03T09:31:52;6.75;2.75;2.00
77411;PMS7003;66484;49.968;19.140;2023-04-03T09:34:28;2.75;2.50;1.25
77411;PMS7003;66484;49.968;19.140;2023-04-03T09:36:59;4.25;1.75;1.00
77411;PMS7003;66484;49.968;19.140;2023-04-03T09:39:47;2.00;2.00;1.00
77411;PMS7003;66484;49.968;19.140;2023-04-03T09:42:23;3.50;3.50;1.00
77411;PMS7003;66484;49.968;19.140;2023-04-03T09:44:57;8.50;5.00;1.00
77411;PMS7003;66484;49.968;19.140;2023-04-03T09:47:27;4.50;4.00;2.00
77411;PMS7003;66484;49.968;19.140;2023-04-03T09:52:43;9.00;5.25;4.00
77411;PMS7003;66484;49.968;19.140;2023-04-03T09:55:19;7.50;6.50;4.25
77411;PMS7003;66484;49.968;19.140;2023-04-03T09:57:57;9.00;5.00;2.50
77411;PMS7003;66484;49.968;19.140;2023-04-03T10:00:34;2.25;0.00;0.00
77411;PMS7003;66484;49.968;19.140;2023-04-03T10:03:03;1.25;1.00;1.00
77411;PMS7003;66484;49.968;19.140;2023-04-03T10:05:36;5.50;5.25;1.00
77411;PMS7003;66484;49.968;19.140;2023-04-03T10:10:38;8.75;5.75;4.75
77411;PMS7003;66484;49.968;19.140;2023-04-03T10:13:15;9.25;4.75;3.75
77411;PMS7003;66484;49.968;19.140;2023-04-03T10:21:13;5.50;5.25;3.75
77411;PMS7003;66484;49.968;19.140;2023-04-03T10:24:07;8.75;3.50;2.00
77411;PMS7003;66484;49.968;19.140;2023-04-03T10:34:46;4.00;2.75;2.00
77411;PMS7003;66484;49.968;19.140;2023-04-03T10:37:30;6.25;6.00;3.00
77411;PMS7003;66484;49.968;19.140;2023-04-03T10:40:11;3.25;2.00;1.50
77411;PMS7003;66484;49.968;19.140;2023-04-03T10:45:51;6.25;4.00;3.00
77411;PMS7003;66484;49.968;19.140;2023-04-03T10:48:43;0.00;0.00;0.00
77411;PMS7003;66484;49.968;19.140;2023-04-03T10:54:03;2.00;2.00;1.50
77411;PMS7003;66484;49.968;19.140;2023-04-03T11:01:48;1.00;1.00;1.00
77411;PMS7003;66484;49.968;19.140;2023-04-03T11:04:20;1.00;1.00;0.00
77411;PMS7003;66484;49.968;19.140;2023-04-03T11:06:57;2.25;2.00;1.00
77411;PMS7003;66484;49.968;19.140;2023-04-03T11:12:40;2.25;1.00;1.00
77411;PMS7003;66484;49.968;19.140;2023-04-03T11:14:46;1.75;1.75;1.00
77411;PMS7003;66484;49.968;19.140;2023-04-03T11:19:47;5.50;4.00;2.00
77411;PMS7003;66484;49.968;19.140;2023-04-03T11:22:39;5.75;5.75;4.50
77411;PMS7003;66484;49.968;19.140;2023-04-03T11:27:57;5.00;3.00;1.00
77411;PMS7003;66484;49.968;19.140;2023-04-03T11:33:20;2.00;1.75;1.00
77411;PMS7003;66484;49.968;19.140;2023-04-03T11:35:57;1.25;1.25;1.25
77411;PMS7003;66484;49.968;19.140;2023-04-03T11:38:36;5.00;2.00;2.00
77411;PMS7003;66484;49.968;19.140;2023-04-03T11:41:06;1.75;1.00;1.00
77411;PMS7003;66484;49.968;19.140;2023-04-03T11:43:39;1.00;1.00;0.75
77411;PMS7003;66484;49.968;19.140;2023-04-03T11:46:08;6.00;5.00;2.00
77411;PMS7003;66484;49.968;19.140;2023-04-03T11:53:43;4.50;3.00;1.00
77411;PMS7003;66484;49.968;19.140;2023-04-03T12:01:55;3.00;3.00;2.25
77411;PMS7003;66484;49.968;19.140;2023-04-03T12:04:28;2.00;2.00;1.00
77411;PMS7003;66484;49.968;19.140;2023-04-03T12:07:01;7.00;6.00;3.00
77411;PMS7003;66484;49.968;19.140;2023-04-03T12:16:19;3.50;3.50;2.00
77411;PMS7003;66484;49.968;19.140;2023-04-03T12:21:13;5.00;3.00;2.00
77411;PMS7003;66484;49.968;19.140;2023-04-03T12:26:30;6.25;5.50;3.00
77411;PMS7003;66484;49.968;19.140;2023-04-03T12:31:56;7.00;6.00;4.00
77411;PMS7003;66484;49.968;19.140;2023-04-03T12:45:58;1.75;1.75;1.75
77411;PMS7003;66484;49.968;19.140;2023-04-03T12:48:30;6.25;3.50;2.50
77411;PMS7003;66484;49.968;19.140;2023-04-03T12:50:59;3.75;2.75;2.00
77411;PMS7003;66484;49.968;19.140;2023-04-03T12:53:35;5.00;3.50;2.25
77411;PMS7003;66484;49.968;19.140;2023-04-03T12:56:22;3.25;2.25;1.00
77411;PMS7003;66484;49.968;19.140;2023-04-03T12:58:50;8.50;4.00;2.50
77411;PMS7003;66484;49.968;19.140;2023-04-03T13:01:20;7.00;4.00;3.00
77411;PMS7003;66484;49.968;19.140;2023-04-03T13:03:55;4.50;4.50;3.00
77411;PMS7003;66484;49.968;19.140;2023-04-03T13:06:26;1.50;1.50;1.50
77411;PMS7003;66484;49.968;19.140;2023-04-03T13:08:56;2.00;2.00;2.00
77411;PMS7003;66484;49.968;19.140;2023-04-03T13:11:26;4.50;3.25;2.00
77411;PMS7003;66484;49.968;19.140;2023-04-03T13:13:59;6.25;3.50;2.50
77411;PMS7003;66484;49.968;19.140;2023-04-03T13:16:32;7.00;5.50;3.25
77411;PMS7003;66484;49.968;19.140;2023-04-03T13:19:00;3.00;3.00;2.00
77411;PMS7003;66484;49.968;19.140;2023-04-03T13:21:28;3.00;3.00;2.75
77411;PMS7003;66484;49.968;19.140;2023-04-03T13:23:58;3.50;3.00;2.75
77411;PMS7003;66484;49.968;19.140;2023-04-03T13:26:40;6.50;6.50;4.00
77411;PMS7003;66484;49.968;19.140;2023-04-03T13:29:28;6.00;6.00;5.50
77411;PMS7003;66484;49.968;19.140;2023-04-03T13:31:58;6.00;5.50;3.00
77411;PMS7003;66484;49.968;19.140;2023-04-03T13:34:28;5.00;5.00;3.50
77411;PMS7003;66484;49.968;19.140;2023-04-03T13:37:02;5.75;4.50;2.00
77411;PMS7003;66484;49.968;19.140;2023-04-03T13:39:35;6.00;4.75;3.50
77411;PMS7003;66484;49.968;19.140;2023-04-03T13:45:17;5.25;2.25;2.25
77411;PMS7003;66484;49.968;19.140;2023-04-03T13:47:51;5.00;5.00;3.50
77411;PMS7003;66484;49.968;19.140;2023-04-03T13:50:22;5.75;3.00;2.50
77411;PMS7003;66484;49.968;19.140;2023-04-03T13:53:03;3.00;3.00;2.50
77411;PMS7003;66484;49.968;19.140;2023-04-03T13:55:52;3.00;3.00;2.00
77411;PMS7003;66484;49.968;19.140;2023-04-03T13:58:26;6.50;6.50;5.00
77411;PMS7003;66484;49.968;19.140;2023-04-03T14:00:58;7.00;5.50;3.00
77411;PMS7003;66484;49.968;19.140;2023-04-03T14:03:33;2.50;2.50;2.00
77411;PMS7003;66484;49.968;19.140;2023-04-03T14:06:10;8.00;7.00;5.00
77411;PMS7003;66484;49.968;19.140;2023-04-03T14:08:39;6.00;6.00;4.00
77411;PMS7003;66484;49.968;19.140;2023-04-03T14:11:14;7.75;7.75;6.75
77411;PMS7003;66484;49.968;19.140;2023-04-03T14:13:44;2.50;2.00;2.00
77411;PMS7003;66484;49.968;19.140;2023-04-03T14:16:13;3.00;3.00;2.00
77411;PMS7003;66484;49.968;19.140;2023-04-03T14:18:44;2.75;1.00;0.00
77411;PMS7003;66484;49.968;19.140;2023-04-03T14:21:13;5.50;5.50;4.00
77411;PMS7003;66484;49.968;19.140;2023-04-03T14:23:43;11.75;7.25;5.00
77411;PMS7003;66484;49.968;19.140;2023-04-03T14:26:16;5.50;5.50;4.50
77411;PMS7003;66484;49.968;19.140;2023-04-03T14:28:46;4.00;4.00;3.00
77411;PMS7003;66484;49.968;19.140;2023-04-03T14:31:15;6.00;6.00;4.00
77411;PMS7003;66484;49.968;19.140;2023-04-03T14:33:43;6.50;6.50;4.00
77411;PMS7003;66484;49.968;19.140;2023-04-03T14:36:20;7.00;7.00;5.00
77411;PMS7003;66484;49.968;19.140;2023-04-03T14:38:50;4.75;4.75;3.00
77411;PMS7003;66484;49.968;19.140;2023-04-03T14:41:19;8.50;8.50;7.25
77411;PMS7003;66484;49.968;19.140;2023-04-03T14:43:47;5.50;5.00;3.00
77411;PMS7003;66484;49.968;19.140;2023-04-03T14:46:17;3.00;3.00;1.00
77411;PMS7003;66484;49.968;19.140;2023-04-03T14:48:53;9.25;7.00;4.25
77411;PMS7003;66484;49.968;19.140;2023-04-03T14:51:20;7.25;7.00;5.50
77411;PMS7003;66484;49.968;19.140;2023-04-03T14:53:48;11.00;7.00;5.25
77411;PMS7003;66484;49.968;19.140;2023-04-03T14:56:17;3.75;3.75;3.75
77411;PMS7003;66484;49.968;19.140;2023-04-03T14:58:58;12.75;9.50;4.50
77411;PMS7003;66484;49.968;19.140;2023-04-03T15:01:29;5.50;5.50;4.00
77411;PMS7003;66484;49.968;19.140;2023-04-03T15:04:08;6.00;6.00;5.00
77411;PMS7003;66484;49.968;19.140;2023-04-03T15:06:49;8.75;8.75;7.25
77411;PMS7003;66484;49.968;19.140;2023-04-03T15:09:24;8.00;8.00;4.00
77411;PMS7003;66484;49.968;19.140;2023-04-03T15:11:54;10.00;9.00;6.25
77411;PMS7003;66484;49.968;19.140;2023-04-03T15:14:25;9.75;8.00;6.75
77411;PMS7003;66484;49.968;19.140;2023-04-03T15:17:06;12.50;10.00;8.75
77411;PMS7003;66484;49.968;19.140;2023-04-03T15:19:40;10.25;10.25;9.00
77411;PMS7003;66484;49.968;19.140;2023-04-03T15:22:10;12.75;10.00;7.50
77411;PMS7003;66484;49.968;19.140;2023-04-03T15:24:42;9.75;7.00;5.75
77411;PMS7003;66484;49.968;19.140;2023-04-03T15:27:10;13.00;10.25;7.00
77411;PMS7003;66484;49.968;19.140;2023-04-03T15:29:39;9.75;8.25;5.00
77411;PMS7003;66484;49.968;19.140;2023-04-03T15:32:07;1.00;1.00;0.25
77411;PMS7003;66484;49.968;19.140;2023-04-03T15:34:36;9.25;6.75;5.75
77411;PMS7003;66484;49.968;19.140;2023-04-03T15:37:04;6.50;6.00;4.50
77411;PMS7003;66484;49.968;19.140;2023-04-03T15:39:32;9.00;9.00;6.00
77411;PMS7003;66484;49.968;19.140;2023-04-03T15:42:00;8.25;8.25;5.25
77411;PMS7003;66484;49.968;19.140;2023-04-03T15:44:33;3.25;3.25;3.25
77411;PMS7003;66484;49.968;19.140;2023-04-03T15:47:01;3.25;3.25;2.75
77411;PMS7003;66484;49.968;19.140;2023-04-03T15:49:29;3.50;2.75;2.25
77411;PMS7003;66484;49.968;19.140;2023-04-03T15:51:59;4.00;4.00;2.00
77411;PMS7003;66484;49.968;19.140;2023-04-03T15:54:27;5.25;5.25;3.25